Time;durP1;ratioP1;P1;durP2;ratioP2;P2;SDS_P1;SDS_P2;PMS_P1;PMS_P2;Temp;Humidity;BMP_temperature;BMP_pressure;BME280_temperature;BME280_humidity;BME280_pressure;Samples;Min_cycle;Max_cycle;Signal;HPM_P1;HPM_P2
2021/09/10 06:32:59;;;;;;;19.95;13.75;;;;;;;;;;4384918;32;423046;-66
2021/09/10 06:43:53;;;;;;;18.25;12.23;;;;;;;;;;4231892;32;61278;-66
2021/09/10 06:47:27;;;;;;;567.08;499.20;;;;;;;;;;4284113;32;20374;-80
2021/09/10 06:49:55;;;;;;;775.33;668.80;;;;;;;;;;5017995;28;20095;-83
2021/09/10 06:52:21;;;;;;;586.70;516.67;;;;;;;;;;5034610;28;20056;-84
2021/09/10 06:54:50;;;;;;;284.25;248.27;;;;;;;;;;5037892;28;20041;-80
2021/09/10 06:57:16;;;;;;;340.10;298.52;;;;;;;;;;5019647;28;20055;-83
2021/09/10 06:59:42;;;;;;;179.95;149.10;;;;;;;;;;4998061;28;20040;-81
2021/09/10 07:02:07;;;;;;;158.80;136.25;;;;;;;;;;5008622;28;20037;-83
2021/09/10 07:04:35;;;;;;;122.32;99.07;;;;;;;;;;5018014;28;20045;-81
2021/09/10 07:07:03;;;;;;;76.78;63.03;;;;;;;;;;4989071;28;20062;-81
2021/09/10 07:09:29;;;;;;;56.10;41.72;;;;;;;;;;5017095;28;20040;-81
2021/09/10 07:11:54;;;;;;;54.92;42.60;;;;;;;;;;5002449;28;20102;-82
2021/09/10 07:14:20;;;;;;;44.75;33.28;;;;;;;;;;5028383;28;20036;-82
2021/09/10 07:16:46;;;;;;;41.70;32.60;;;;;;;;;;5018020;28;20138;-81
2021/09/10 07:19:12;;;;;;;36.15;25.33;;;;;;;;;;5022940;28;20044;-81
2021/09/10 07:21:38;;;;;;;36.75;23.83;;;;;;;;;;5024483;28;20465;-85
2021/09/10 07:24:07;;;;;;;30.25;19.23;;;;;;;;;;5019621;28;20595;-83
2021/09/10 07:26:32;;;;;;;24.95;17.10;;;;;;;;;;5016476;28;20052;-84
2021/09/10 07:28:58;;;;;;;27.88;17.30;;;;;;;;;;4998745;28;20048;-82
2021/09/10 07:31:30;;;;;;;28.67;17.05;;;;;;;;;;5019093;28;20542;-82
2021/09/10 07:33:56;;;;;;;21.90;12.13;;;;;;;;;;5019118;28;20029;-84
2021/09/10 07:36:22;;;;;;;23.60;14.55;;;;;;;;;;5031511;28;20067;-82
2021/09/10 07:38:48;;;;;;;21.00;11.98;;;;;;;;;;5019545;28;20048;-82
2021/09/10 07:41:13;;;;;;;21.55;12.18;;;;;;;;;;5027358;28;20051;-83
2021/09/10 07:43:39;;;;;;;20.40;11.93;;;;;;;;;;5026742;28;20033;-84
2021/09/10 07:46:05;;;;;;;21.05;12.48;;;;;;;;;;5022265;28;20033;-84
2021/09/10 07:48:31;;;;;;;16.48;6.38;;;;;;;;;;5014381;28;20060;-85
2021/09/10 07:50:57;;;;;;;25.17;13.25;;;;;;;;;;5010338;28;20059;-83
2021/09/10 07:53:23;;;;;;;21.27;7.80;;;;;;;;;;5006223;28;21461;-82
2021/09/10 07:55:48;;;;;;;17.40;7.13;;;;;;;;;;5027492;28;20052;-83
2021/09/10 07:58:20;;;;;;;23.63;12.27;;;;;;;;;;5017059;28;20037;-82
2021/09/10 08:00:46;;;;;;;20.40;11.57;;;;;;;;;;5013659;28;20126;-84
2021/09/10 08:03:11;;;;;;;15.05;6.80;;;;;;;;;;4996991;28;20052;-82
2021/09/10 08:05:37;;;;;;;13.90;5.72;;;;;;;;;;5016024;28;20052;-83
2021/09/10 08:08:04;;;;;;;19.40;10.43;;;;;;;;;;5012041;28;20041;-84
2021/09/10 08:10:30;;;;;;;19.25;11.10;;;;;;;;;;5011459;28;20049;-83
2021/09/10 08:13:05;;;;;;;19.27;11.10;;;;;;;;;;5020441;28;20176;-84
2021/09/10 08:15:30;;;;;;;18.25;10.35;;;;;;;;;;5018882;28;20123;-85
2021/09/10 08:17:56;;;;;;;23.20;11.30;;;;;;;;;;5002656;28;20052;-84
2021/09/10 08:20:22;;;;;;;21.20;8.07;;;;;;;;;;5019826;28;20047;-84
2021/09/10 08:22:48;;;;;;;19.80;10.27;;;;;;;;;;5003664;28;20052;-83
2021/09/10 08:25:19;;;;;;;16.08;9.75;;;;;;;;;;5020694;28;20056;-81
2021/09/10 08:27:47;;;;;;;16.65;7.85;;;;;;;;;;5020537;28;20564;-80
2021/09/10 08:30:13;;;;;;;17.75;8.35;;;;;;;;;;5020607;28;20041;-81
2021/09/10 08:32:39;;;;;;;19.92;9.07;;;;;;;;;;5019238;28;20036;-81
2021/09/10 08:35:05;;;;;;;15.02;8.25;;;;;;;;;;5018187;28;20044;-82
2021/09/10 08:37:32;;;;;;;19.50;8.45;;;;;;;;;;5020360;28;20079;-82
2021/09/10 08:39:58;;;;;;;17.27;7.70;;;;;;;;;;5018271;28;20112;-81
2021/09/10 08:42:24;;;;;;;13.55;6.97;;;;;;;;;;5022747;28;20079;-84
2021/09/10 08:44:50;;;;;;;17.58;10.32;;;;;;;;;;5020135;28;20485;-79
2021/09/10 08:47:16;;;;;;;17.73;9.05;;;;;;;;;;5010508;28;20106;-81
2021/09/10 08:49:45;;;;;;;14.98;8.05;;;;;;;;;;5010591;28;20040;-83
2021/09/10 08:52:11;;;;;;;16.60;8.43;;;;;;;;;;5002390;28;20041;-82
2021/09/10 08:54:37;;;;;;;19.60;8.25;;;;;;;;;;5002458;28;20048;-83
2021/09/10 08:57:03;;;;;;;149.05;131.07;;;;;;;;;;4985702;28;20041;-78
2021/09/10 08:59:31;;;;;;;305.40;264.65;;;;;;;;;;5013369;28;20043;-80
2021/09/10 09:01:58;;;;;;;246.23;216.40;;;;;;;;;;5007464;28;20518;-80
2021/09/10 09:04:31;;;;;;;60.15;41.78;;;;;;;;;;5016430;28;20116;-80
2021/09/10 09:06:57;;;;;;;35.70;23.60;;;;;;;;;;5012152;28;20045;-79
2021/09/10 09:09:45;;;;;;;25.15;14.35;;;;;;;;;;5012088;28;20056;-81
2021/09/10 09:12:29;;;;;;;22.40;12.27;;;;;;;;;;5011204;28;20513;-79
2021/09/10 09:15:06;;;;;;;27.23;15.00;;;;;;;;;;4994644;28;20124;-82
2021/09/10 09:17:35;;;;;;;29.70;21.35;;;;;;;;;;5008231;28;20182;-79
2021/09/10 09:20:21;;;;;;;30.77;19.02;;;;;;;;;;5005135;28;20037;-85
2021/09/10 09:22:54;;;;;;;19.92;12.43;;;;;;;;;;4998625;28;20170;-81
2021/09/10 09:25:34;;;;;;;16.13;9.77;;;;;;;;;;5007473;28;20041;-83
2021/09/10 09:28:17;;;;;;;15.95;9.07;;;;;;;;;;5004554;28;20049;-83
2021/09/10 09:30:49;;;;;;;23.50;14.50;;;;;;;;;;5012160;28;20036;-81
2021/09/10 09:33:18;;;;;;;25.23;16.85;;;;;;;;;;5012287;28;20047;-83
2021/09/10 09:35:45;;;;;;;24.13;14.23;;;;;;;;;;4994463;28;20041;-82
2021/09/10 09:38:15;;;;;;;18.15;9.77;;;;;;;;;;5007830;28;20290;-82
2021/09/10 09:40:41;;;;;;;17.48;7.07;;;;;;;;;;5019248;28;20112;-83
2021/09/10 09:43:17;;;;;;;16.27;6.65;;;;;;;;;;5010113;28;20167;-82
2021/09/10 09:45:51;;;;;;;27.52;19.02;;;;;;;;;;5003233;28;20041;-81
2021/09/10 09:48:22;;;;;;;21.65;9.65;;;;;;;;;;5009607;28;20037;-82
2021/09/10 09:50:49;;;;;;;16.63;9.07;;;;;;;;;;5007038;28;20414;-82
2021/09/10 09:53:15;;;;;;;20.85;11.32;;;;;;;;;;5014016;28;20644;-82
2021/09/10 09:55:47;;;;;;;18.20;7.07;;;;;;;;;;4992830;28;20179;-80
2021/09/10 09:58:15;;;;;;;17.75;9.15;;;;;;;;;;5013696;28;20422;-81
2021/09/10 10:00:43;;;;;;;18.55;10.00;;;;;;;;;;5003718;28;20127;-82
2021/09/10 10:03:09;;;;;;;18.52;5.05;;;;;;;;;;5012940;28;20079;-82
2021/09/10 10:06:03;;;;;;;19.98;11.57;;;;;;;;;;4995700;28;20037;-83
2021/09/10 10:08:34;;;;;;;12.95;4.68;;;;;;;;;;5009576;28;20087;-83
2021/09/10 10:11:09;;;;;;;13.40;4.30;;;;;;;;;;4990647;28;20595;-82
2021/09/10 10:13:35;;;;;;;19.35;10.73;;;;;;;;;;4997914;28;20408;-79
2021/09/10 10:16:01;;;;;;;62.17;41.03;;;;;;;;;;5005174;28;20041;-80
2021/09/10 10:18:41;;;;;;;42.42;28.83;;;;;;;;;;4993673;28;20109;-81
2021/09/10 10:21:08;;;;;;;15.00;5.22;;;;;;;;;;5011066;28;20071;-81
2021/09/10 10:23:43;;;;;;;18.73;8.93;;;;;;;;;;5006823;28;20040;-80
2021/09/10 10:26:32;;;;;;;39.60;22.40;;;;;;;;;;4995712;28;20131;-80
2021/09/10 10:29:16;;;;;;;62.03;43.92;;;;;;;;;;5003427;28;20060;-80
2021/09/10 10:32:00;;;;;;;39.17;22.95;;;;;;;;;;4993174;28;20104;-80
2021/09/10 10:34:26;;;;;;;27.90;16.95;;;;;;;;;;5006711;28;20150;-81
2021/09/10 10:36:55;;;;;;;21.33;12.35;;;;;;;;;;5000364;28;20044;-82
2021/09/10 10:39:35;;;;;;;116.15;72.00;;;;;;;;;;5019385;28;20122;-80
2021/09/10 10:42:02;;;;;;;506.70;329.40;;;;;;;;;;5009092;28;20037;-82
2021/09/10 10:44:34;;;;;;;329.80;207.95;;;;;;;;;;4984260;28;20368;-81
2021/09/10 10:47:15;;;;;;;98.95;57.03;;;;;;;;;;5012430;28;20049;-82
2021/09/10 10:49:42;;;;;;;36.15;21.25;;;;;;;;;;5002873;28;20040;-82
2021/09/10 10:52:23;;;;;;;22.73;10.50;;;;;;;;;;5019590;28;20037;-82
2021/09/10 10:55:12;;;;;;;23.25;12.57;;;;;;;;;;4994967;28;20049;-80
2021/09/10 10:57:38;;;;;;;310.98;219.93;;;;;;;;;;4981529;28;20526;-83
2021/09/10 11:00:36;;;;;;;155.15;92.70;;;;;;;;;;5011258;28;20025;-84
2021/09/10 11:03:15;;;;;;;45.05;24.92;;;;;;;;;;5001878;28;20038;-82
2021/09/10 11:06:38;;;;;;;20.10;10.63;;;;;;;;;;5025548;28;20048;-79
2021/09/10 11:09:07;;;;;;;21.00;10.75;;;;;;;;;;4937754;29;20118;-83
2021/09/10 11:11:36;;;;;;;25.90;14.32;;;;;;;;;;4920006;29;20038;-80
2021/09/10 11:14:08;;;;;;;24.27;10.38;;;;;;;;;;4965651;28;20112;-83
2021/09/10 11:16:34;;;;;;;22.80;11.60;;;;;;;;;;4979661;28;20047;-82
2021/09/10 11:19:06;;;;;;;20.15;9.35;;;;;;;;;;5022275;28;20041;-82
2021/09/10 11:21:32;;;;;;;23.00;11.38;;;;;;;;;;5025536;28;20489;-82
2021/09/10 11:24:07;;;;;;;14.25;5.45;;;;;;;;;;5008940;28;20041;-82
2021/09/10 11:26:36;;;;;;;22.00;8.43;;;;;;;;;;5013038;28;20128;-82
2021/09/10 11:29:08;;;;;;;22.58;6.85;;;;;;;;;;5018620;28;20041;-82
2021/09/10 11:31:34;;;;;;;18.33;7.45;;;;;;;;;;5008236;28;20068;-82
2021/09/10 11:34:03;;;;;;;19.83;8.65;;;;;;;;;;5011175;28;20053;-83
2021/09/10 11:36:38;;;;;;;21.05;8.32;;;;;;;;;;4979272;28;20060;-82
2021/09/10 11:39:07;;;;;;;20.50;10.45;;;;;;;;;;4977333;28;20037;-81
2021/09/10 11:41:36;;;;;;;20.70;6.53;;;;;;;;;;5022595;28;20044;-82
2021/09/10 11:44:12;;;;;;;21.85;10.10;;;;;;;;;;5015474;28;20064;-82
2021/09/10 11:46:38;;;;;;;18.65;8.88;;;;;;;;;;5000541;28;20049;-82
2021/09/10 11:49:08;;;;;;;22.25;9.07;;;;;;;;;;5013765;28;20044;-81
2021/09/10 11:51:46;;;;;;;23.20;10.15;;;;;;;;;;5008571;28;20047;-83
2021/09/10 11:54:14;;;;;;;17.58;6.18;;;;;;;;;;5030231;28;20111;-83
2021/09/10 11:56:40;;;;;;;19.40;7.75;;;;;;;;;;5014836;28;20106;-82
2021/09/10 11:59:26;;;;;;;22.35;8.60;;;;;;;;;;5006226;28;20029;-82
2021/09/10 12:01:53;;;;;;;24.63;9.43;;;;;;;;;;5011350;28;20033;-81
2021/09/10 12:04:30;;;;;;;20.10;8.35;;;;;;;;;;5028606;28;20071;-83
2021/09/10 12:06:58;;;;;;;18.13;8.50;;;;;;;;;;5003152;28;20055;-82
2021/09/10 12:09:33;;;;;;;18.58;8.82;;;;;;;;;;5012100;28;20029;-83
2021/09/10 12:12:02;;;;;;;18.83;8.57;;;;;;;;;;5015641;28;20048;-83
2021/09/10 12:14:39;;;;;;;25.48;7.03;;;;;;;;;;5011973;28;20041;-82
2021/09/10 12:17:16;;;;;;;31.30;7.55;;;;;;;;;;5016815;28;20041;-82
2021/09/10 12:19:51;;;;;;;18.95;8.65;;;;;;;;;;5012889;28;20127;-82
2021/09/10 12:22:33;;;;;;;23.30;6.25;;;;;;;;;;4995044;28;20053;-81
2021/09/10 12:25:35;;;;;;;19.42;7.85;;;;;;;;;;4977025;28;20047;-83
2021/09/10 12:28:06;;;;;;;16.95;7.28;;;;;;;;;;4997986;28;20063;-82
2021/09/10 12:30:47;;;;;;;21.50;7.18;;;;;;;;;;5011376;28;20037;-81
2021/09/10 12:33:23;;;;;;;20.50;8.07;;;;;;;;;;5009003;28;20040;-82
2021/09/10 12:35:53;;;;;;;24.58;6.47;;;;;;;;;;5009881;28;20115;-83
2021/09/10 12:38:21;;;;;;;22.52;7.82;;;;;;;;;;5012764;28;20033;-81
2021/09/10 12:40:48;;;;;;;17.33;7.28;;;;;;;;;;4992596;28;20040;-83
2021/09/10 12:43:15;;;;;;;18.20;6.45;;;;;;;;;;5008068;28;20101;-83
2021/09/10 12:45:41;;;;;;;16.65;6.75;;;;;;;;;;5014873;28;20056;-82
2021/09/10 12:48:07;;;;;;;15.07;6.65;;;;;;;;;;5017098;28;20063;-81
2021/09/10 12:50:33;;;;;;;19.75;7.40;;;;;;;;;;5000777;28;20044;-83
2021/09/10 12:52:59;;;;;;;13.80;6.93;;;;;;;;;;5001247;28;20033;-82
2021/09/10 12:55:25;;;;;;;16.33;7.03;;;;;;;;;;5017581;28;20051;-82
2021/09/10 12:57:51;;;;;;;18.92;6.85;;;;;;;;;;5037683;28;20034;-83
2021/09/10 13:00:17;;;;;;;18.98;7.50;;;;;;;;;;5017542;28;20041;-82
2021/09/10 13:02:43;;;;;;;12.63;6.85;;;;;;;;;;4984291;28;20164;-83
2021/09/10 13:05:09;;;;;;;18.92;7.50;;;;;;;;;;5007129;28;20537;-81
2021/09/10 13:07:35;;;;;;;19.38;7.40;;;;;;;;;;5019834;28;20041;-82
2021/09/10 13:10:01;;;;;;;14.40;7.75;;;;;;;;;;5000476;28;20158;-81
2021/09/10 13:12:27;;;;;;;16.98;7.53;;;;;;;;;;5000069;28;20037;-83
2021/09/10 13:14:53;;;;;;;16.88;7.43;;;;;;;;;;4994645;28;20045;-81
2021/09/10 13:17:22;;;;;;;16.10;7.18;;;;;;;;;;5002758;28;20041;-83
2021/09/10 13:19:49;;;;;;;18.92;7.63;;;;;;;;;;5020545;28;20063;-79
2021/09/10 13:22:18;;;;;;;642.10;434.35;;;;;;;;;;5016228;28;20090;-81
2021/09/10 13:24:44;;;;;;;453.95;287.52;;;;;;;;;;4992262;28;20087;-81
2021/09/10 13:27:14;;;;;;;418.30;303.73;;;;;;;;;;5014657;28;20036;-81
2021/09/10 13:29:40;;;;;;;444.38;384.70;;;;;;;;;;5010796;28;20037;-81
2021/09/10 13:32:06;;;;;;;470.33;415.15;;;;;;;;;;5015856;28;20045;-84
2021/09/10 13:34:32;;;;;;;696.53;597.35;;;;;;;;;;5015175;28;20621;-83
2021/09/10 13:36:58;;;;;;;832.05;668.42;;;;;;;;;;5010272;28;20048;-80
2021/09/10 13:39:24;;;;;;;998.80;814.85;;;;;;;;;;5008555;28;20191;-80
2021/09/10 13:41:52;;;;;;;1092.03;808.53;;;;;;;;;;5014755;28;20049;-81
2021/09/10 13:44:18;;;;;;;1347.40;945.63;;;;;;;;;;5007789;28;20033;-81
2021/09/10 13:46:43;;;;;;;1379.40;948.47;;;;;;;;;;4997361;28;20505;-81
2021/09/10 13:49:09;;;;;;;1557.18;991.03;;;;;;;;;;5010661;28;20048;-81
2021/09/10 13:51:35;;;;;;;1258.40;856.83;;;;;;;;;;4988400;28;20034;-81
2021/09/10 13:54:01;;;;;;;1034.95;726.70;;;;;;;;;;5014588;28;20037;-79
2021/09/10 13:56:27;;;;;;;1660.35;990.88;;;;;;;;;;5007413;28;20074;-82
2021/09/10 13:58:54;;;;;;;1205.43;797.53;;;;;;;;;;5007941;28;20057;-80
2021/09/10 14:01:20;;;;;;;1434.45;898.00;;;;;;;;;;5000533;28;20071;-83
2021/09/10 14:03:46;;;;;;;1363.57;904.95;;;;;;;;;;5015383;28;20044;-80
2021/09/10 14:06:12;;;;;;;1390.20;882.28;;;;;;;;;;5018923;28;20040;-83
2021/09/10 14:08:38;;;;;;;1217.20;841.83;;;;;;;;;;5025942;28;20091;-78
2021/09/10 14:11:03;;;;;;;1456.72;918.80;;;;;;;;;;5013785;28;20041;-80
2021/09/10 14:13:30;;;;;;;1267.85;842.67;;;;;;;;;;5025527;28;20103;-80
2021/09/10 14:15:56;;;;;;;1289.78;864.33;;;;;;;;;;5023584;28;20041;-80
2021/09/10 14:18:22;;;;;;;1221.13;830.13;;;;;;;;;;4993000;28;20041;-80
2021/09/10 14:20:48;;;;;;;1301.10;869.95;;;;;;;;;;4994848;28;20090;-80
2021/09/10 14:23:13;;;;;;;1241.38;825.05;;;;;;;;;;5011000;28;20417;-82
2021/09/10 14:25:39;;;;;;;912.83;632.28;;;;;;;;;;4985516;28;20053;-83
2021/09/10 14:28:05;;;;;;;1164.53;817.95;;;;;;;;;;4993518;28;20045;-82
2021/09/10 14:30:31;;;;;;;1276.53;873.30;;;;;;;;;;5009808;28;20567;-83
2021/09/10 14:32:57;;;;;;;975.03;716.88;;;;;;;;;;5014391;28;20533;-81
2021/09/10 14:35:23;;;;;;;999.33;744.50;;;;;;;;;;4998496;28;20090;-79
2021/09/10 14:37:48;;;;;;;818.20;648.78;;;;;;;;;;5004582;28;20595;-80
2021/09/10 14:40:16;;;;;;;700.00;568.75;;;;;;;;;;4995432;28;20052;-83
2021/09/10 14:42:42;;;;;;;662.95;564.00;;;;;;;;;;5022837;28;20041;-82
2021/09/10 14:45:08;;;;;;;449.83;389.85;;;;;;;;;;5011999;28;20055;-81
2021/09/10 14:47:34;;;;;;;334.20;297.27;;;;;;;;;;5020241;28;20055;-81
2021/09/10 14:50:00;;;;;;;351.65;313.58;;;;;;;;;;5017186;28;20036;-81
2021/09/10 14:52:26;;;;;;;208.63;186.35;;;;;;;;;;4983204;28;20037;-82
2021/09/10 14:54:52;;;;;;;216.98;195.02;;;;;;;;;;4999136;28;20417;-79
2021/09/10 14:57:17;;;;;;;335.27;299.73;;;;;;;;;;5016713;28;20029;-83
2021/09/10 15:02:09;;;;;;;770.72;666.55;;;;;;;;;;5009716;28;20418;-80
2021/09/10 15:04:35;;;;;;;1036.30;799.22;;;;;;;;;;5009116;28;20474;-82
2021/09/10 15:07:04;;;;;;;903.60;721.75;;;;;;;;;;4999770;28;20182;-80
2021/09/10 15:09:30;;;;;;;968.55;750.85;;;;;;;;;;5033369;28;20041;-82
2021/09/10 15:11:56;;;;;;;995.88;762.30;;;;;;;;;;5003460;28;20418;-79
2021/09/10 15:14:22;;;;;;;1195.35;861.47;;;;;;;;;;5004032;28;20068;-79
2021/09/10 15:16:48;;;;;;;1336.47;878.10;;;;;;;;;;5019431;28;20478;-80
2021/09/10 15:19:14;;;;;;;546.53;362.05;;;;;;;;;;4990206;28;20101;-77
2021/09/10 15:21:40;;;;;;;1641.45;983.22;;;;;;;;;;5019760;28;20402;-78
2021/09/10 15:24:06;;;;;;;1170.15;760.20;;;;;;;;;;5018424;28;20456;-79
2021/09/10 15:26:32;;;;;;;1363.20;797.90;;;;;;;;;;4989601;28;20075;-77
2021/09/10 15:28:58;;;;;;;1598.32;945.03;;;;;;;;;;5002036;28;20055;-77
2021/09/10 15:31:25;;;;;;;1379.07;832.20;;;;;;;;;;5022625;28;20418;-79
2021/09/10 15:33:50;;;;;;;285.77;198.20;;;;;;;;;;5008985;28;20044;-77
2021/09/10 15:36:16;;;;;;;342.50;230.48;;;;;;;;;;5003252;28;20066;-81
2021/09/10 15:38:42;;;;;;;1120.72;661.38;;;;;;;;;;5003518;28;20533;-79
2021/09/10 15:41:10;;;;;;;986.40;636.92;;;;;;;;;;4986962;28;20048;-80
2021/09/10 15:43:39;;;;;;;766.40;512.78;;;;;;;;;;5005475;28;20480;-81
2021/09/10 15:46:05;;;;;;;1053.78;707.83;;;;;;;;;;4986143;28;20087;-81
2021/09/10 15:48:32;;;;;;;1482.38;902.58;;;;;;;;;;5002741;28;20070;-81
2021/09/10 15:51:02;;;;;;;863.72;541.00;;;;;;;;;;4987062;28;20044;-81
2021/09/10 15:53:28;;;;;;;1757.68;953.38;;;;;;;;;;5017340;28;20060;-82
2021/09/10 15:55:55;;;;;;;934.05;611.20;;;;;;;;;;4994020;28;20086;-79
2021/09/10 15:58:24;;;;;;;191.35;116.43;;;;;;;;;;5021404;28;20037;-79
2021/09/10 16:00:50;;;;;;;11.85;6.22;;;;;;;;;;5004773;28;20074;-79
2021/09/10 16:03:16;;;;;;;51.03;25.48;;;;;;;;;;5023561;28;20033;-81
2021/09/10 16:05:42;;;;;;;1671.57;962.00;;;;;;;;;;4986543;28;20044;-80
2021/09/10 16:08:08;;;;;;;64.55;42.13;;;;;;;;;;5021875;28;20430;-80
2021/09/10 16:10:34;;;;;;;650.78;405.75;;;;;;;;;;5016745;28;20102;-81
2021/09/10 16:13:00;;;;;;;462.08;307.63;;;;;;;;;;4987087;28;20033;-82
2021/09/10 16:15:25;;;;;;;741.90;465.55;;;;;;;;;;5010199;28;20127;-82
2021/09/10 16:17:51;;;;;;;630.70;464.80;;;;;;;;;;5010133;28;20044;-81
2021/09/10 16:20:18;;;;;;;231.30;159.85;;;;;;;;;;5003259;28;20041;-82
2021/09/10 16:22:43;;;;;;;784.03;574.08;;;;;;;;;;5020767;28;20052;-82
2021/09/10 16:25:10;;;;;;;26.70;14.55;;;;;;;;;;5017419;28;20973;-83
2021/09/10 16:27:36;;;;;;;299.95;247.30;;;;;;;;;;5021458;28;20059;-81
2021/09/10 16:30:02;;;;;;;12.60;4.50;;;;;;;;;;5011367;28;20037;-81
2021/09/10 16:32:28;;;;;;;1246.65;878.35;;;;;;;;;;5003774;28;20040;-80
2021/09/10 16:34:53;;;;;;;1150.57;778.45;;;;;;;;;;4996232;28;20033;-80
2021/09/10 16:37:19;;;;;;;1143.68;750.72;;;;;;;;;;4983287;28;20514;-78
2021/09/10 16:39:45;;;;;;;1680.47;941.72;;;;;;;;;;5004229;28;20048;-81
2021/09/10 16:42:11;;;;;;;1999.90;999.90;;;;;;;;;;5010669;28;20037;-80
2021/09/10 16:44:37;;;;;;;1667.57;959.45;;;;;;;;;;5001002;28;20411;-76
2021/09/10 16:47:04;;;;;;;1831.13;968.95;;;;;;;;;;4999638;28;20053;-77
2021/09/10 16:49:30;;;;;;;1999.90;999.90;;;;;;;;;;5004575;28;20053;-77
2021/09/10 16:51:56;;;;;;;1999.90;999.90;;;;;;;;;;5019912;28;20067;-77
2021/09/10 16:54:21;;;;;;;1999.90;999.90;;;;;;;;;;5020645;28;20068;-76
2021/09/10 16:56:47;;;;;;;1999.90;999.90;;;;;;;;;;5015641;28;20348;-78
2021/09/10 16:59:13;;;;;;;1999.90;999.90;;;;;;;;;;5011434;28;20094;-77
2021/09/10 17:01:39;;;;;;;1616.78;840.22;;;;;;;;;;4991000;28;20056;-78
2021/09/10 17:04:05;;;;;;;1866.03;976.78;;;;;;;;;;4984870;28;20099;-76
2021/09/10 17:06:30;;;;;;;1901.75;952.92;;;;;;;;;;4976551;28;20417;-76
2021/09/10 17:08:59;;;;;;;1999.90;994.30;;;;;;;;;;5007241;28;20036;-79
2021/09/10 17:11:25;;;;;;;1830.18;921.22;;;;;;;;;;4994034;28;20542;-77
2021/09/10 17:13:51;;;;;;;1695.18;836.40;;;;;;;;;;4985476;28;20037;-78
2021/09/10 17:16:17;;;;;;;1419.03;833.90;;;;;;;;;;5002761;28;20129;-78
2021/09/10 17:18:43;;;;;;;1516.88;894.63;;;;;;;;;;4984486;28;20586;-78
2021/09/10 17:21:09;;;;;;;598.40;397.52;;;;;;;;;;5015704;28;20514;-78
2021/09/10 17:23:34;;;;;;;952.63;675.58;;;;;;;;;;5000608;28;21554;-78
2021/09/10 17:26:00;;;;;;;860.60;652.67;;;;;;;;;;5015744;28;20044;-79
2021/09/10 17:28:27;;;;;;;737.25;581.92;;;;;;;;;;4984447;28;20114;-80
2021/09/10 17:30:53;;;;;;;712.88;597.20;;;;;;;;;;5010611;28;20560;-81
2021/09/10 17:33:19;;;;;;;603.92;516.50;;;;;;;;;;5009497;28;20591;-79
2021/09/10 17:35:45;;;;;;;391.75;305.42;;;;;;;;;;5024865;28;20048;-84
2021/09/10 17:38:10;;;;;;;328.52;294.52;;;;;;;;;;5019293;28;20518;-80
2021/09/10 17:40:36;;;;;;;223.65;200.93;;;;;;;;;;5024006;28;20036;-80
2021/09/10 17:43:18;;;;;;;160.77;143.88;;;;;;;;;;5030873;28;20045;-81
2021/09/10 17:45:57;;;;;;;136.73;123.68;;;;;;;;;;4999841;28;20131;-81
2021/09/10 17:48:24;;;;;;;87.45;79.13;;;;;;;;;;5015386;28;20115;-82
2021/09/10 17:50:56;;;;;;;58.22;52.80;;;;;;;;;;4983990;28;20110;-80
2021/09/10 17:53:28;;;;;;;55.85;50.67;;;;;;;;;;5009647;28;20135;-81
2021/09/10 17:55:54;;;;;;;51.30;45.97;;;;;;;;;;4987520;28;20048;-84
2021/09/10 17:58:20;;;;;;;52.67;47.85;;;;;;;;;;5002078;28;20029;-80
2021/09/10 18:00:45;;;;;;;40.53;36.72;;;;;;;;;;5013935;28;20041;-80
2021/09/10 18:03:14;;;;;;;35.47;32.00;;;;;;;;;;5002649;28;20098;-82
2021/09/10 18:05:41;;;;;;;38.92;35.17;;;;;;;;;;5004794;28;20029;-84
2021/09/10 18:08:07;;;;;;;31.42;28.10;;;;;;;;;;5010401;28;20041;-81
2021/09/10 18:10:34;;;;;;;35.92;32.03;;;;;;;;;;5004019;28;20529;-83
2021/09/10 18:13:00;;;;;;;28.48;25.27;;;;;;;;;;5011599;28;20091;-84
2021/09/10 18:15:26;;;;;;;26.27;23.05;;;;;;;;;;5020661;28;20082;-82
2021/09/10 18:17:53;;;;;;;32.72;29.42;;;;;;;;;;4990944;28;20102;-82
2021/09/10 18:20:22;;;;;;;22.83;18.10;;;;;;;;;;4968315;28;20037;-81
2021/09/10 18:22:48;;;;;;;24.77;20.67;;;;;;;;;;4983886;28;20048;-82
2021/09/10 18:25:20;;;;;;;23.80;18.15;;;;;;;;;;5000856;28;20041;-82
2021/09/10 18:27:47;;;;;;;19.95;16.35;;;;;;;;;;5000900;28;20543;-82
2021/09/10 18:30:15;;;;;;;20.00;15.35;;;;;;;;;;4999858;28;20040;-82
2021/09/10 18:33:01;;;;;;;21.58;16.63;;;;;;;;;;4999822;28;20044;-81
2021/09/10 18:35:27;;;;;;;18.48;13.20;;;;;;;;;;5000120;28;20041;-82
2021/09/10 18:37:53;;;;;;;19.02;12.63;;;;;;;;;;4953665;28;20426;-81
2021/09/10 18:40:19;;;;;;;20.58;11.52;;;;;;;;;;5002533;28;20037;-80
2021/09/10 18:42:45;;;;;;;16.92;11.43;;;;;;;;;;5015830;28;20044;-83
2021/09/10 18:45:11;;;;;;;17.85;11.82;;;;;;;;;;5021222;28;20032;-80
2021/09/10 18:47:36;;;;;;;19.73;13.18;;;;;;;;;;5006998;28;20052;-80
2021/09/10 18:50:03;;;;;;;20.50;12.80;;;;;;;;;;5002090;28;20037;-81
2021/09/10 18:52:28;;;;;;;19.05;13.63;;;;;;;;;;4994679;28;20052;-80
2021/09/10 18:54:54;;;;;;;17.20;11.93;;;;;;;;;;5011645;28;20040;-80
2021/09/10 18:57:20;;;;;;;16.63;10.40;;;;;;;;;;5012121;28;20052;-80
2021/09/10 18:59:46;;;;;;;18.63;14.68;;;;;;;;;;5000768;28;20044;-80
2021/09/10 19:02:12;;;;;;;18.40;11.73;;;;;;;;;;4997929;28;20265;-81
2021/09/10 19:04:38;;;;;;;20.73;12.52;;;;;;;;;;4983314;28;20041;-82
2021/09/10 19:07:04;;;;;;;15.73;10.88;;;;;;;;;;4999699;28;20037;-79
2021/09/10 19:09:30;;;;;;;14.80;10.13;;;;;;;;;;5007123;28;20418;-79
2021/09/10 19:11:56;;;;;;;6.95;3.97;;;;;;;;;;4998643;28;20286;-79
2021/09/10 19:14:22;;;;;;;15.93;10.65;;;;;;;;;;4999582;28;20045;-79
2021/09/10 19:16:48;;;;;;;16.17;9.85;;;;;;;;;;4999145;28;20560;-80
2021/09/10 19:19:13;;;;;;;12.40;9.23;;;;;;;;;;4982946;28;20045;-79
2021/09/10 19:21:39;;;;;;;14.70;8.77;;;;;;;;;;5011850;28;20526;-81
2021/09/10 19:24:05;;;;;;;12.70;8.68;;;;;;;;;;4998027;28;20112;-79
2021/09/10 19:26:31;;;;;;;12.65;9.80;;;;;;;;;;5000035;28;20044;-80
2021/09/10 19:28:57;;;;;;;13.52;7.85;;;;;;;;;;5012284;28;20102;-80
2021/09/10 19:31:23;;;;;;;12.90;7.78;;;;;;;;;;4999513;28;20040;-80
2021/09/10 19:33:48;;;;;;;13.75;7.57;;;;;;;;;;4998131;28;20039;-80
2021/09/10 19:36:14;;;;;;;12.68;7.57;;;;;;;;;;4996793;28;20037;-80
2021/09/10 19:38:40;;;;;;;11.68;7.28;;;;;;;;;;4985308;28;20063;-81
2021/09/10 19:41:06;;;;;;;9.70;7.50;;;;;;;;;;5017211;28;20072;-79
2021/09/10 19:43:32;;;;;;;12.27;8.63;;;;;;;;;;4998737;28;20068;-80
2021/09/10 19:45:58;;;;;;;11.90;7.60;;;;;;;;;;4995157;28;20041;-81
2021/09/10 19:48:24;;;;;;;9.70;7.07;;;;;;;;;;5017982;28;20296;-81
2021/09/10 19:50:50;;;;;;;12.88;7.60;;;;;;;;;;5008407;28;20045;-78
2021/09/10 19:53:16;;;;;;;10.15;6.90;;;;;;;;;;5003771;28;20075;-80
2021/09/10 19:55:42;;;;;;;12.10;8.45;;;;;;;;;;5005884;28;20036;-81
2021/09/10 19:58:08;;;;;;;10.65;7.38;;;;;;;;;;5004963;28;20418;-81
2021/09/10 20:00:34;;;;;;;10.30;7.20;;;;;;;;;;5016015;28;20033;-81
2021/09/10 20:03:00;;;;;;;10.85;7.00;;;;;;;;;;5000622;28;20106;-79
2021/09/10 20:05:26;;;;;;;8.27;6.80;;;;;;;;;;5019055;28;20044;-79
2021/09/10 20:07:51;;;;;;;11.05;6.40;;;;;;;;;;5004421;28;20037;-81
2021/09/10 20:10:19;;;;;;;10.15;7.15;;;;;;;;;;5021693;28;20033;-81
2021/09/10 20:12:45;;;;;;;11.30;6.03;;;;;;;;;;5021491;28;20587;-81
2021/09/10 20:15:11;;;;;;;9.27;6.22;;;;;;;;;;5015930;28;20117;-81
2021/09/10 20:17:37;;;;;;;9.48;5.47;;;;;;;;;;5003559;28;20039;-80
2021/09/10 20:20:03;;;;;;;11.82;5.60;;;;;;;;;;5003574;28;20399;-81
2021/09/10 20:22:29;;;;;;;8.77;5.90;;;;;;;;;;5020610;28;20399;-80
2021/09/10 20:24:55;;;;;;;9.90;5.35;;;;;;;;;;5003752;28;20119;-78
2021/09/10 20:27:21;;;;;;;9.50;6.20;;;;;;;;;;4986047;28;20064;-80
2021/09/10 20:29:47;;;;;;;8.77;5.45;;;;;;;;;;4989435;28;20068;-78
2021/09/10 20:32:14;;;;;;;7.13;5.15;;;;;;;;;;5021626;28;20085;-78
2021/09/10 20:34:43;;;;;;;11.02;6.15;;;;;;;;;;5002037;28;20041;-80
2021/09/10 20:37:10;;;;;;;9.37;5.50;;;;;;;;;;5018461;28;20029;-79
2021/09/10 20:39:36;;;;;;;6.72;4.97;;;;;;;;;;5005159;28;20433;-79
2021/09/10 20:42:04;;;;;;;8.90;5.45;;;;;;;;;;5019889;28;20037;-81
2021/09/10 20:44:29;;;;;;;9.60;5.40;;;;;;;;;;5001164;28;20037;-80
2021/09/10 20:46:56;;;;;;;7.25;5.50;;;;;;;;;;5013075;28;20049;-79
2021/09/10 20:49:22;;;;;;;11.13;5.53;;;;;;;;;;5019635;28;20053;-80
2021/09/10 20:51:47;;;;;;;6.82;5.28;;;;;;;;;;5002924;28;20048;-80
2021/09/10 20:54:13;;;;;;;10.45;6.50;;;;;;;;;;5005878;28;20037;-79
2021/09/10 20:56:40;;;;;;;9.38;5.90;;;;;;;;;;5000619;28;20131;-81
2021/09/10 20:59:06;;;;;;;8.68;5.22;;;;;;;;;;4988946;28;20049;-80
2021/09/10 21:01:32;;;;;;;7.70;5.43;;;;;;;;;;5001621;28;20052;-78